Portada
METAR-TAF:

METAR-TAF

Aeroports :

Illes Wake, Estats Units d'Amèrica

latitud: 19-17N, longitud: 166-39E, altitud: 4 m

Observació

L'informe es va fer fa 16 minuts, a les 11:58 UTC
Vent 10 kt del Est/Nord-Est
Temperatura 25°C
Humitat 79%
Pressió 1018 hPa
Visibilitat 10 km o més
Cel clar

METAR: PWAK 091158Z AUTO 07010KT 9999 CLR 25/21 A3005 RMK AO2 SLP182 60000 T02460207 10271 20246 50006 $

Hora: 00:14 (12:14 UTC)

Pronòstic

L'informe es va fer fa 6 hores i 14 minuts, a les 06:00 UTC
Pronòstic vàlid del 09 a les 06 UTC al 10 a les 12 UTC
Vent 9 kt del Est/Nord-Est
Visibilitat 10 km o més
Escasses núvols a una alçada de 2600 ft

TAF: PWAK 090600Z 0906/1012 07009KT 9999 FEW026 QNH2997INS TX28/0907Z TN24/0918Z FOR MIL USE ONLY

Observacions i pronòstics meteorològics de més de 4000 aeroports (METAR i TAF).

Les estacions disponibles són els punts grocs i vermells al mapa.

Posi el ratolí al punt desitjat per veure el nom de l'estació.

Feu clic per veure les observacions i els pronòstics meteorològics.

Per canviar el mapa: feu clic els botons verds amb una creu de color negre per apropar; al botó verd amb un guió per allunyar la imatge; o en les fletxes verdes per a mapes adjacents.


METAR-TAF: